sensor_id;sensor_type;location;lat;lon;timestamp;temperature;humidity
11025;DHT22;22890;51.820;8.682;2022-10-03T00:01:42;8.60;99.90
11025;DHT22;22890;51.820;8.682;2022-10-03T00:09:53;8.40;99.90
11025;DHT22;22890;51.820;8.682;2022-10-03T00:13:39;8.40;99.90
11025;DHT22;22890;51.820;8.682;2022-10-03T00:20:50;8.30;99.90
11025;DHT22;22890;51.820;8.682;2022-10-03T00:26:12;6.70;99.90
11025;DHT22;22890;51.820;8.682;2022-10-03T00:37:43;8.10;99.90
11025;DHT22;22890;51.820;8.682;2022-10-03T00:43:25;8.00;99.90
11025;DHT22;22890;51.820;8.682;2022-10-03T00:46:29;8.00;99.90
11025;DHT22;22890;51.820;8.682;2022-10-03T00:49:37;7.90;99.90
11025;DHT22;22890;51.820;8.682;2022-10-03T00:52:17;7.90;99.90
11025;DHT22;22890;51.820;8.682;2022-10-03T00:55:36;7.80;99.90
11025;DHT22;22890;51.820;8.682;2022-10-03T01:00:34;7.70;99.90
11025;DHT22;22890;51.820;8.682;2022-10-03T01:06:45;7.70;99.90
11025;DHT22;22890;51.820;8.682;2022-10-03T01:10:16;7.70;99.90
11025;DHT22;22890;51.820;8.682;2022-10-03T01:12:48;7.60;99.90
11025;DHT22;22890;51.820;8.682;2022-10-03T01:15:50;7.60;99.90
11025;DHT22;22890;51.820;8.682;2022-10-03T01:18:37;7.60;99.90
11025;DHT22;22890;51.820;8.682;2022-10-03T01:24:23;7.50;99.90
11025;DHT22;22890;51.820;8.682;2022-10-03T01:26:55;7.50;99.90
11025;DHT22;22890;51.820;8.682;2022-10-03T01:35:10;7.40;99.90
11025;DHT22;22890;51.820;8.682;2022-10-03T01:38:00;7.50;99.90
11025;DHT22;22890;51.820;8.682;2022-10-03T01:40:36;7.40;99.90
11025;DHT22;22890;51.820;8.682;2022-10-03T01:43:23;7.50;99.90
11025;DHT22;22890;51.820;8.682;2022-10-03T01:46:11;7.40;99.90
11025;DHT22;22890;51.820;8.682;2022-10-03T01:49:01;7.40;99.90
11025;DHT22;22890;51.820;8.682;2022-10-03T01:51:48;7.40;99.90
11025;DHT22;22890;51.820;8.682;2022-10-03T01:57:20;7.40;99.90
11025;DHT22;22890;51.820;8.682;2022-10-03T02:05:46;7.40;99.90
11025;DHT22;22890;51.820;8.682;2022-10-03T02:08:58;7.40;99.90
11025;DHT22;22890;51.820;8.682;2022-10-03T02:11:38;7.40;99.90
11025;DHT22;22890;51.820;8.682;2022-10-03T02:14:19;7.50;99.90
11025;DHT22;22890;51.820;8.682;2022-10-03T02:16:55;7.50;99.90
11025;DHT22;22890;51.820;8.682;2022-10-03T02:19:33;7.50;99.90
11025;DHT22;22890;51.820;8.682;2022-10-03T02:22:01;7.60;99.90
11025;DHT22;22890;51.820;8.682;2022-10-03T02:35:55;7.70;99.90
11025;DHT22;22890;51.820;8.682;2022-10-03T02:52:48;8.00;99.90
11025;DHT22;22890;51.820;8.682;2022-10-03T02:58:11;8.00;99.90
11025;DHT22;22890;51.820;8.682;2022-10-03T03:01:11;8.10;99.90
11025;DHT22;22890;51.820;8.682;2022-10-03T03:06:56;8.20;99.90
11025;DHT22;22890;51.820;8.682;2022-10-03T03:15:38;8.30;99.90
11025;DHT22;22890;51.820;8.682;2022-10-03T03:18:16;8.40;99.90
11025;DHT22;22890;51.820;8.682;2022-10-03T03:40:55;8.70;99.90
11025;DHT22;22890;51.820;8.682;2022-10-03T03:46:31;8.80;99.90
11025;DHT22;22890;51.820;8.682;2022-10-03T03:51:57;8.90;99.90
11025;DHT22;22890;51.820;8.682;2022-10-03T03:57:27;8.90;99.90
11025;DHT22;22890;51.820;8.682;2022-10-03T04:00:14;9.00;99.90
11025;DHT22;22890;51.820;8.682;2022-10-03T04:02:57;9.00;99.90
11025;DHT22;22890;51.820;8.682;2022-10-03T04:09:02;9.10;99.90
11025;DHT22;22890;51.820;8.682;2022-10-03T04:11:57;9.20;99.90
11025;DHT22;22890;51.820;8.682;2022-10-03T04:17:49;9.20;99.90
11025;DHT22;22890;51.820;8.682;2022-10-03T04:23:55;9.20;99.90
11025;DHT22;22890;51.820;8.682;2022-10-03T04:29:20;9.30;99.90
11025;DHT22;22890;51.820;8.682;2022-10-03T04:32:20;9.30;99.90
11025;DHT22;22890;51.820;8.682;2022-10-03T04:43:43;9.50;99.90
11025;DHT22;22890;51.820;8.682;2022-10-03T04:45:59;9.50;99.90
11025;DHT22;22890;51.820;8.682;2022-10-03T04:52:01;9.60;99.90
11025;DHT22;22890;51.820;8.682;2022-10-03T04:55:05;9.70;99.90
11025;DHT22;22890;51.820;8.682;2022-10-03T04:57:52;9.70;99.90
11025;DHT22;22890;51.820;8.682;2022-10-03T05:00:30;9.70;99.90
11025;DHT22;22890;51.820;8.682;2022-10-03T05:03:17;9.70;99.90
11025;DHT22;22890;51.820;8.682;2022-10-03T05:08:40;9.80;99.90
11025;DHT22;22890;51.820;8.682;2022-10-03T05:20:19;9.80;99.90
11025;DHT22;22890;51.820;8.682;2022-10-03T05:26:17;9.90;99.90
11025;DHT22;22890;51.820;8.682;2022-10-03T05:29:35;9.80;99.90
11025;DHT22;22890;51.820;8.682;2022-10-03T05:35:05;9.90;99.90
11025;DHT22;22890;51.820;8.682;2022-10-03T05:40:25;9.90;99.90
11025;DHT22;22890;51.820;8.682;2022-10-03T05:48:30;9.90;99.90
11025;DHT22;22890;51.820;8.682;2022-10-03T05:51:39;9.90;99.90
11025;DHT22;22890;51.820;8.682;2022-10-03T05:55:17;10.00;99.90
11025;DHT22;22890;51.820;8.682;2022-10-03T06:00:21;10.10;99.90
11025;DHT22;22890;51.820;8.682;2022-10-03T06:28:54;10.20;99.90
11025;DHT22;22890;51.820;8.682;2022-10-03T06:50:43;10.30;99.90
11025;DHT22;22890;51.820;8.682;2022-10-03T06:56:32;10.40;99.90
11025;DHT22;22890;51.820;8.682;2022-10-03T07:04:47;10.50;99.90
11025;DHT22;22890;51.820;8.682;2022-10-03T07:13:19;10.60;99.90
11025;DHT22;22890;51.820;8.682;2022-10-03T07:22:22;10.70;99.90
11025;DHT22;22890;51.820;8.682;2022-10-03T07:30:22;10.80;99.90
11025;DHT22;22890;51.820;8.682;2022-10-03T07:36:21;10.70;99.90
11025;DHT22;22890;51.820;8.682;2022-10-03T07:45:00;10.60;99.90
11025;DHT22;22890;51.820;8.682;2022-10-03T08:10:26;10.80;99.90
11025;DHT22;22890;51.820;8.682;2022-10-03T08:15:55;10.90;99.90
11025;DHT22;22890;51.820;8.682;2022-10-03T08:18:34;11.00;99.90
11025;DHT22;22890;51.820;8.682;2022-10-03T08:21:15;11.10;99.90
11025;DHT22;22890;51.820;8.682;2022-10-03T08:31:59;11.10;99.90
11025;DHT22;22890;51.820;8.682;2022-10-03T08:34:55;11.20;99.90
11025;DHT22;22890;51.820;8.682;2022-10-03T08:51:44;11.40;99.90
11025;DHT22;22890;51.820;8.682;2022-10-03T08:54:31;11.50;99.90
11025;DHT22;22890;51.820;8.682;2022-10-03T09:00:19;11.60;99.90
11025;DHT22;22890;51.820;8.682;2022-10-03T09:03:28;11.60;99.90
11025;DHT22;22890;51.820;8.682;2022-10-03T09:06:40;11.60;99.90
11025;DHT22;22890;51.820;8.682;2022-10-03T09:43:57;12.00;99.90
11025;DHT22;22890;51.820;8.682;2022-10-03T09:53:23;12.10;99.90
11025;DHT22;22890;51.820;8.682;2022-10-03T09:56:30;12.20;99.90
11025;DHT22;22890;51.820;8.682;2022-10-03T10:02:14;12.30;99.90
11025;DHT22;22890;51.820;8.682;2022-10-03T10:13:21;12.60;99.90
11025;DHT22;22890;51.820;8.682;2022-10-03T10:25:05;12.80;99.90
11025;DHT22;22890;51.820;8.682;2022-10-03T10:36:58;13.20;99.90
11025;DHT22;22890;51.820;8.682;2022-10-03T10:51:22;13.60;99.90
11025;DHT22;22890;51.820;8.682;2022-10-03T11:09:09;14.00;99.90
11025;DHT22;22890;51.820;8.682;2022-10-03T11:27:04;14.50;99.90
11025;DHT22;22890;51.820;8.682;2022-10-03T11:39:13;14.70;99.90
11025;DHT22;22890;51.820;8.682;2022-10-03T11:57:38;14.80;99.90
11025;DHT22;22890;51.820;8.682;2022-10-03T12:00:18;14.90;99.90
11025;DHT22;22890;51.820;8.682;2022-10-03T12:06:16;15.10;99.90
11025;DHT22;22890;51.820;8.682;2022-10-03T12:12:00;15.30;99.90
11025;DHT22;22890;51.820;8.682;2022-10-03T12:14:35;15.30;99.90
11025;DHT22;22890;51.820;8.682;2022-10-03T12:17:28;15.30;99.90
11025;DHT22;22890;51.820;8.682;2022-10-03T12:20:15;15.30;99.90
11025;DHT22;22890;51.820;8.682;2022-10-03T12:22:47;15.40;99.90
11025;DHT22;22890;51.820;8.682;2022-10-03T12:31:17;15.50;99.90
11025;DHT22;22890;51.820;8.682;2022-10-03T12:33:51;15.60;99.90
11025;DHT22;22890;51.820;8.682;2022-10-03T12:36:49;15.40;99.90
11025;DHT22;22890;51.820;8.682;2022-10-03T12:42:29;15.40;99.90
11025;DHT22;22890;51.820;8.682;2022-10-03T12:51:07;15.40;99.90
11025;DHT22;22890;51.820;8.682;2022-10-03T12:54:01;15.40;99.90
11025;DHT22;22890;51.820;8.682;2022-10-03T12:56:47;15.40;99.90
11025;DHT22;22890;51.820;8.682;2022-10-03T12:59:39;15.50;99.90
11025;DHT22;22890;51.820;8.682;2022-10-03T13:02:16;15.40;99.90
11025;DHT22;22890;51.820;8.682;2022-10-03T13:05:23;15.50;99.90
11025;DHT22;22890;51.820;8.682;2022-10-03T13:10:31;15.50;99.90
11025;DHT22;22890;51.820;8.682;2022-10-03T13:15:47;15.50;99.90
11025;DHT22;22890;51.820;8.682;2022-10-03T13:18:49;15.50;99.90
11025;DHT22;22890;51.820;8.682;2022-10-03T13:22:18;15.60;99.90
11025;DHT22;22890;51.820;8.682;2022-10-03T13:24:31;15.60;99.90
11025;DHT22;22890;51.820;8.682;2022-10-03T13:29:45;15.60;99.90
11025;DHT22;22890;51.820;8.682;2022-10-03T13:32:15;15.70;99.90
11025;DHT22;22890;51.820;8.682;2022-10-03T13:34:53;15.70;99.90
11025;DHT22;22890;51.820;8.682;2022-10-03T13:37:48;15.70;99.90
11025;DHT22;22890;51.820;8.682;2022-10-03T13:40:23;15.80;99.90
11025;DHT22;22890;51.820;8.682;2022-10-03T13:42:56;15.90;99.90
11025;DHT22;22890;51.820;8.682;2022-10-03T13:45:24;15.90;99.90
11025;DHT22;22890;51.820;8.682;2022-10-03T13:48:00;15.90;99.90
11025;DHT22;22890;51.820;8.682;2022-10-03T13:50:44;16.00;99.90
11025;DHT22;22890;51.820;8.682;2022-10-03T13:53:19;16.00;99.90
11025;DHT22;22890;51.820;8.682;2022-10-03T13:55:54;16.10;99.90
11025;DHT22;22890;51.820;8.682;2022-10-03T13:58:39;16.10;99.90
11025;DHT22;22890;51.820;8.682;2022-10-03T14:01:32;16.10;99.90
11025;DHT22;22890;51.820;8.682;2022-10-03T14:04:43;16.10;99.90
11025;DHT22;22890;51.820;8.682;2022-10-03T14:07:45;16.10;99.90
11025;DHT22;22890;51.820;8.682;2022-10-03T14:10:47;16.20;99.90
11025;DHT22;22890;51.820;8.682;2022-10-03T14:13:28;16.20;99.90
11025;DHT22;22890;51.820;8.682;2022-10-03T14:16:02;16.20;99.90
11025;DHT22;22890;51.820;8.682;2022-10-03T14:18:45;16.10;99.90
11025;DHT22;22890;51.820;8.682;2022-10-03T14:24:04;16.20;99.90
11025;DHT22;22890;51.820;8.682;2022-10-03T14:26:55;16.20;99.90
11025;DHT22;22890;51.820;8.682;2022-10-03T14:29:25;16.20;99.90
11025;DHT22;22890;51.820;8.682;2022-10-03T14:32:04;16.10;99.90
11025;DHT22;22890;51.820;8.682;2022-10-03T14:35:07;16.20;99.90
11025;DHT22;22890;51.820;8.682;2022-10-03T14:38:32;16.10;99.90
11025;DHT22;22890;51.820;8.682;2022-10-03T14:41:01;16.10;99.90
11025;DHT22;22890;51.820;8.682;2022-10-03T14:43:44;16.10;99.90
11025;DHT22;22890;51.820;8.682;2022-10-03T14:46:13;16.00;99.90
11025;DHT22;22890;51.820;8.682;2022-10-03T14:48:45;16.00;99.90
11025;DHT22;22890;51.820;8.682;2022-10-03T14:51:18;16.00;99.90
11025;DHT22;22890;51.820;8.682;2022-10-03T14:53:55;16.00;99.90
11025;DHT22;22890;51.820;8.682;2022-10-03T14:56:22;15.90;99.90
11025;DHT22;22890;51.820;8.682;2022-10-03T14:58:53;15.90;99.90
11025;DHT22;22890;51.820;8.682;2022-10-03T15:01:24;15.80;99.90
11025;DHT22;22890;51.820;8.682;2022-10-03T15:04:06;15.80;99.90
11025;DHT22;22890;51.820;8.682;2022-10-03T15:09:28;15.80;99.90
11025;DHT22;22890;51.820;8.682;2022-10-03T15:12:03;15.80;99.90
11025;DHT22;22890;51.820;8.682;2022-10-03T15:14:34;15.80;99.90
11025;DHT22;22890;51.820;8.682;2022-10-03T15:17:06;15.70;99.90
11025;DHT22;22890;51.820;8.682;2022-10-03T15:19:46;15.70;99.90
11025;DHT22;22890;51.820;8.682;2022-10-03T15:22:27;15.70;99.90
11025;DHT22;22890;51.820;8.682;2022-10-03T15:25:09;15.60;99.90
11025;DHT22;22890;51.820;8.682;2022-10-03T15:27:40;15.70;99.90
11025;DHT22;22890;51.820;8.682;2022-10-03T15:30:22;15.60;99.90
11025;DHT22;22890;51.820;8.682;2022-10-03T15:33:07;15.60;99.90
11025;DHT22;22890;51.820;8.682;2022-10-03T15:35:38;15.60;99.90
11025;DHT22;22890;51.820;8.682;2022-10-03T15:38:14;15.50;99.90
11025;DHT22;22890;51.820;8.682;2022-10-03T15:40:50;15.50;99.90
11025;DHT22;22890;51.820;8.682;2022-10-03T15:43:33;15.50;99.90
11025;DHT22;22890;51.820;8.682;2022-10-03T15:46:05;15.50;99.90
11025;DHT22;22890;51.820;8.682;2022-10-03T15:48:40;15.50;99.90
11025;DHT22;22890;51.820;8.682;2022-10-03T15:51:16;12.70;99.90
11025;DHT22;22890;51.820;8.682;2022-10-03T15:53:49;15.50;99.90
11025;DHT22;22890;51.820;8.682;2022-10-03T15:56:36;15.50;99.90
11025;DHT22;22890;51.820;8.682;2022-10-03T15:59:07;15.50;99.90
11025;DHT22;22890;51.820;8.682;2022-10-03T16:01:37;15.50;99.90
11025;DHT22;22890;51.820;8.682;2022-10-03T16:04:25;15.50;99.90
11025;DHT22;22890;51.820;8.682;2022-10-03T16:09:55;15.40;99.90
11025;DHT22;22890;51.820;8.682;2022-10-03T16:15:31;15.40;99.90
11025;DHT22;22890;51.820;8.682;2022-10-03T16:18:09;15.40;99.90
11025;DHT22;22890;51.820;8.682;2022-10-03T16:20:40;15.40;99.90
11025;DHT22;22890;51.820;8.682;2022-10-03T16:25:54;15.40;99.90
11025;DHT22;22890;51.820;8.682;2022-10-03T16:28:27;15.30;99.90
11025;DHT22;22890;51.820;8.682;2022-10-03T16:30:58;15.30;99.90
11025;DHT22;22890;51.820;8.682;2022-10-03T16:36:03;15.30;99.90
11025;DHT22;22890;51.820;8.682;2022-10-03T16:38:33;15.30;99.90
11025;DHT22;22890;51.820;8.682;2022-10-03T16:41:04;15.20;99.90
11025;DHT22;22890;51.820;8.682;2022-10-03T16:43:33;15.20;99.90
11025;DHT22;22890;51.820;8.682;2022-10-03T16:46:04;15.10;99.90
11025;DHT22;22890;51.820;8.682;2022-10-03T16:48:33;15.00;99.90
11025;DHT22;22890;51.820;8.682;2022-10-03T16:51:25;15.00;99.90
11025;DHT22;22890;51.820;8.682;2022-10-03T16:53:54;15.00;99.90
11025;DHT22;22890;51.820;8.682;2022-10-03T16:56:24;14.90;99.90
11025;DHT22;22890;51.820;8.682;2022-10-03T16:58:54;14.90;99.90
11025;DHT22;22890;51.820;8.682;2022-10-03T17:01:38;14.80;99.90
11025;DHT22;22890;51.820;8.682;2022-10-03T17:04:22;14.70;99.90
11025;DHT22;22890;51.820;8.682;2022-10-03T17:06:51;14.70;99.90
11025;DHT22;22890;51.820;8.682;2022-10-03T17:09:56;14.60;99.90
11025;DHT22;22890;51.820;8.682;2022-10-03T17:12:41;14.50;99.90
11025;DHT22;22890;51.820;8.682;2022-10-03T17:15:23;14.50;99.90
11025;DHT22;22890;51.820;8.682;2022-10-03T17:18:07;14.40;99.90
11025;DHT22;22890;51.820;8.682;2022-10-03T17:20:41;14.30;99.90
11025;DHT22;22890;51.820;8.682;2022-10-03T17:26:05;14.10;99.90
11025;DHT22;22890;51.820;8.682;2022-10-03T17:28:47;14.00;99.90
11025;DHT22;22890;51.820;8.682;2022-10-03T17:31:42;14.00;99.90
11025;DHT22;22890;51.820;8.682;2022-10-03T17:34:17;13.90;99.90
11025;DHT22;22890;51.820;8.682;2022-10-03T17:37:04;13.80;99.90
11025;DHT22;22890;51.820;8.682;2022-10-03T17:39:44;13.80;99.90
11025;DHT22;22890;51.820;8.682;2022-10-03T17:42:41;13.70;99.90
11025;DHT22;22890;51.820;8.682;2022-10-03T17:48:22;13.50;99.90
11025;DHT22;22890;51.820;8.682;2022-10-03T17:53:31;13.40;99.90
11025;DHT22;22890;51.820;8.682;2022-10-03T17:56:05;13.40;99.90
11025;DHT22;22890;51.820;8.682;2022-10-03T17:58:36;13.40;99.90
11025;DHT22;22890;51.820;8.682;2022-10-03T18:01:19;13.30;99.90
11025;DHT22;22890;51.820;8.682;2022-10-03T18:03:54;13.20;99.90
11025;DHT22;22890;51.820;8.682;2022-10-03T18:08:59;13.10;99.90
11025;DHT22;22890;51.820;8.682;2022-10-03T18:11:28;13.00;99.90
11025;DHT22;22890;51.820;8.682;2022-10-03T18:17:04;12.90;99.90
11025;DHT22;22890;51.820;8.682;2022-10-03T18:22:37;12.80;99.90
11025;DHT22;22890;51.820;8.682;2022-10-03T18:28:58;12.70;99.90
11025;DHT22;22890;51.820;8.682;2022-10-03T18:31:27;12.60;99.90
11025;DHT22;22890;51.820;8.682;2022-10-03T18:34:17;12.60;99.90
11025;DHT22;22890;51.820;8.682;2022-10-03T18:36:49;12.50;99.90
11025;DHT22;22890;51.820;8.682;2022-10-03T18:39:28;12.50;99.90
11025;DHT22;22890;51.820;8.682;2022-10-03T18:41:57;12.40;99.90
11025;DHT22;22890;51.820;8.682;2022-10-03T18:44:28;12.40;99.90
11025;DHT22;22890;51.820;8.682;2022-10-03T18:47:05;12.30;99.90
11025;DHT22;22890;51.820;8.682;2022-10-03T18:49:38;12.30;99.90
11025;DHT22;22890;51.820;8.682;2022-10-03T18:52:13;12.20;99.90
11025;DHT22;22890;51.820;8.682;2022-10-03T18:57:16;12.10;99.90
11025;DHT22;22890;51.820;8.682;2022-10-03T19:02:39;12.00;99.90
11025;DHT22;22890;51.820;8.682;2022-10-03T19:08:11;11.90;99.90
11025;DHT22;22890;51.820;8.682;2022-10-03T19:10:43;11.90;99.90
11025;DHT22;22890;51.820;8.682;2022-10-03T19:13:20;11.80;99.90
11025;DHT22;22890;51.820;8.682;2022-10-03T19:18:46;11.70;99.90
11025;DHT22;22890;51.820;8.682;2022-10-03T19:21:18;11.60;99.90
11025;DHT22;22890;51.820;8.682;2022-10-03T19:24:08;11.60;99.90
11025;DHT22;22890;51.820;8.682;2022-10-03T19:26:50;11.50;99.90
11025;DHT22;22890;51.820;8.682;2022-10-03T19:29:22;11.40;99.90
11025;DHT22;22890;51.820;8.682;2022-10-03T19:31:51;11.40;99.90
11025;DHT22;22890;51.820;8.682;2022-10-03T19:34:34;11.30;99.90
11025;DHT22;22890;51.820;8.682;2022-10-03T19:37:04;11.30;99.90
11025;DHT22;22890;51.820;8.682;2022-10-03T19:39:32;11.20;99.90
11025;DHT22;22890;51.820;8.682;2022-10-03T19:44:41;11.10;99.90
11025;DHT22;22890;51.820;8.682;2022-10-03T19:47:34;11.10;99.90
11025;DHT22;22890;51.820;8.682;2022-10-03T19:50:03;11.00;99.90
11025;DHT22;22890;51.820;8.682;2022-10-03T19:52:34;10.90;99.90
11025;DHT22;22890;51.820;8.682;2022-10-03T19:55:13;10.90;99.90
11025;DHT22;22890;51.820;8.682;2022-10-03T19:57:52;10.80;99.90
11025;DHT22;22890;51.820;8.682;2022-10-03T20:00:23;10.70;99.90
11025;DHT22;22890;51.820;8.682;2022-10-03T20:03:03;10.70;99.90
11025;DHT22;22890;51.820;8.682;2022-10-03T20:05:40;10.60;99.90
11025;DHT22;22890;51.820;8.682;2022-10-03T20:08:30;10.60;99.90
11025;DHT22;22890;51.820;8.682;2022-10-03T20:13:47;10.50;99.90
11025;DHT22;22890;51.820;8.682;2022-10-03T20:16:18;10.40;99.90
11025;DHT22;22890;51.820;8.682;2022-10-03T20:18:48;10.40;99.90
11025;DHT22;22890;51.820;8.682;2022-10-03T20:21:22;10.40;99.90
11025;DHT22;22890;51.820;8.682;2022-10-03T20:23:52;10.30;99.90
11025;DHT22;22890;51.820;8.682;2022-10-03T20:26:43;10.20;99.90
11025;DHT22;22890;51.820;8.682;2022-10-03T20:29:34;10.30;99.90
11025;DHT22;22890;51.820;8.682;2022-10-03T20:32:04;10.20;99.90
11025;DHT22;22890;51.820;8.682;2022-10-03T20:34:33;10.20;99.90
11025;DHT22;22890;51.820;8.682;2022-10-03T20:39:52;10.20;99.90
11025;DHT22;22890;51.820;8.682;2022-10-03T20:42:24;10.20;99.90
11025;DHT22;22890;51.820;8.682;2022-10-03T20:45:12;10.10;99.90
11025;DHT22;22890;51.820;8.682;2022-10-03T20:50:26;10.10;99.90
11025;DHT22;22890;51.820;8.682;2022-10-03T20:52:57;10.00;99.90
11025;DHT22;22890;51.820;8.682;2022-10-03T20:55:31;10.00;99.90
11025;DHT22;22890;51.820;8.682;2022-10-03T20:58:11;9.90;99.90
11025;DHT22;22890;51.820;8.682;2022-10-03T21:00:47;9.90;99.90
11025;DHT22;22890;51.820;8.682;2022-10-03T21:03:48;9.80;99.90
11025;DHT22;22890;51.820;8.682;2022-10-03T21:06:24;9.80;99.90
11025;DHT22;22890;51.820;8.682;2022-10-03T21:08:54;9.70;99.90
11025;DHT22;22890;51.820;8.682;2022-10-03T21:11:27;9.70;99.90
11025;DHT22;22890;51.820;8.682;2022-10-03T21:16:29;9.70;99.90
11025;DHT22;22890;51.820;8.682;2022-10-03T21:19:02;9.60;99.90
11025;DHT22;22890;51.820;8.682;2022-10-03T21:21:39;9.60;99.90
11025;DHT22;22890;51.820;8.682;2022-10-03T21:27:05;9.60;99.90
11025;DHT22;22890;51.820;8.682;2022-10-03T21:29:36;9.60;99.90
11025;DHT22;22890;51.820;8.682;2022-10-03T21:34:43;9.50;99.90
11025;DHT22;22890;51.820;8.682;2022-10-03T21:45:49;9.30;99.90
11025;DHT22;22890;51.820;8.682;2022-10-03T21:54:12;9.20;99.90
11025;DHT22;22890;51.820;8.682;2022-10-03T22:04:50;9.00;99.90
11025;DHT22;22890;51.820;8.682;2022-10-03T22:07:40;9.00;99.90
11025;DHT22;22890;51.820;8.682;2022-10-03T22:10:34;8.90;99.90
11025;DHT22;22890;51.820;8.682;2022-10-03T22:13:07;9.00;99.90
11025;DHT22;22890;51.820;8.682;2022-10-03T22:15:39;8.80;99.90
11025;DHT22;22890;51.820;8.682;2022-10-03T22:18:14;8.90;99.90
11025;DHT22;22890;51.820;8.682;2022-10-03T22:32:14;8.80;99.90
11025;DHT22;22890;51.820;8.682;2022-10-03T22:37:38;8.70;99.90
11025;DHT22;22890;51.820;8.682;2022-10-03T22:40:06;8.70;99.90
11025;DHT22;22890;51.820;8.682;2022-10-03T22:42:39;8.70;99.90
11025;DHT22;22890;51.820;8.682;2022-10-03T22:45:08;8.70;99.90
11025;DHT22;22890;51.820;8.682;2022-10-03T22:47:36;8.70;99.90
11025;DHT22;22890;51.820;8.682;2022-10-03T22:50:09;8.70;99.90
11025;DHT22;22890;51.820;8.682;2022-10-03T22:52:40;8.70;99.90
11025;DHT22;22890;51.820;8.682;2022-10-03T22:55:11;8.70;99.90
11025;DHT22;22890;51.820;8.682;2022-10-03T22:57:40;8.60;99.90
11025;DHT22;22890;51.820;8.682;2022-10-03T23:00:10;8.60;99.90
11025;DHT22;22890;51.820;8.682;2022-10-03T23:05:13;8.50;99.90
11025;DHT22;22890;51.820;8.682;2022-10-03T23:08:04;8.60;99.90
11025;DHT22;22890;51.820;8.682;2022-10-03T23:10:49;8.50;99.90
11025;DHT22;22890;51.820;8.682;2022-10-03T23:13:38;8.50;99.90
11025;DHT22;22890;51.820;8.682;2022-10-03T23:16:30;8.50;99.90
11025;DHT22;22890;51.820;8.682;2022-10-03T23:19:16;8.40;99.90
11025;DHT22;22890;51.820;8.682;2022-10-03T23:21:48;8.50;99.90
11025;DHT22;22890;51.820;8.682;2022-10-03T23:24:33;8.40;99.90
11025;DHT22;22890;51.820;8.682;2022-10-03T23:35:19;8.30;99.90
11025;DHT22;22890;51.820;8.682;2022-10-03T23:37:58;8.40;99.90
11025;DHT22;22890;51.820;8.682;2022-10-03T23:40:33;8.30;99.90
11025;DHT22;22890;51.820;8.682;2022-10-03T23:43:20;8.30;99.90
11025;DHT22;22890;51.820;8.682;2022-10-03T23:45:53;8.30;99.90
11025;DHT22;22890;51.820;8.682;2022-10-03T23:48:23;8.30;99.90
11025;DHT22;22890;51.820;8.682;2022-10-03T23:51:02;8.30;99.90
11025;DHT22;22890;51.820;8.682;2022-10-03T23:53:42;8.30;99.90
11025;DHT22;22890;51.820;8.682;2022-10-03T23:56:26;8.20;99.90
